Time,TemperatureF,DewpointF,PressureIn,WindDirection,WindDirectionDegrees,WindSpeedMPH,WindSpeedGustMPH,Humidity,HourlyPrecipIn,Conditions,Clouds,dailyrainin,SoftwareType,DateUTC
2013-06-07 00:00:00,53.8,49.7,30.25,ENE,78,1.0,1.0,86,0.00,,,0.00,Wunderground v.1.15,2013-06-07 04:00:00,
2013-06-07 00:05:00,53.7,49.6,30.24,ENE,78,0.0,1.0,86,0.00,,,0.00,Wunderground v.1.15,2013-06-07 04:05:00,
2013-06-07 00:10:00,53.7,49.6,30.24,ENE,78,0.0,0.0,86,0.00,,,0.00,Wunderground v.1.15,2013-06-07 04:10:00,
2013-06-07 00:15:00,53.6,49.5,30.24,ENE,78,0.0,0.0,86,0.00,,,0.00,Wunderground v.1.15,2013-06-07 04:15:00,
2013-06-07 00:25:00,53.5,49.4,30.24,ENE,78,0.0,0.0,86,0.00,,,0.00,Wunderground v.1.15,2013-06-07 04:25:00,
2013-06-07 00:30:00,53.4,49.3,30.24,ENE,78,0.0,0.0,86,0.00,,,0.00,Wunderground v.1.15,2013-06-07 04:30:00,
2013-06-07 00:35:00,53.4,49.6,30.24,ENE,78,0.0,0.0,87,0.00,,,0.00,Wunderground v.1.15,2013-06-07 04:35:00,
2013-06-07 00:45:00,53.3,49.2,30.24,East,79,0.0,1.0,86,0.00,,,0.00,Wunderground v.1.15,2013-06-07 04:45:00,
2013-06-07 00:50:00,53.4,49.6,30.24,East,79,0.0,0.0,87,0.00,,,0.00,Wunderground v.1.15,2013-06-07 04:50:00,
2013-06-07 00:55:00,53.3,49.5,30.24,East,79,0.0,0.0,87,0.00,,,0.00,Wunderground v.1.15,2013-06-07 04:55:00,
2013-06-07 01:00:00,53.3,49.5,30.24,East,79,0.0,0.0,87,0.00,,,0.00,Wunderground v.1.15,2013-06-07 05:00:00,
2013-06-07 01:10:00,53.2,49.7,30.23,East,79,0.0,0.0,88,0.00,,,0.00,Wunderground v.1.15,2013-06-07 05:10:00,
2013-06-07 01:15:00,53.2,49.7,30.23,East,79,0.0,0.0,88,0.00,,,0.00,Wunderground v.1.15,2013-06-07 05:15:00,
2013-06-07 01:20:00,53.1,49.6,30.24,East,79,0.0,0.0,88,0.00,,,0.00,Wunderground v.1.15,2013-06-07 05:20:00,
2013-06-07 01:25:00,53.0,49.5,30.24,East,79,0.0,0.0,88,0.00,,,0.00,Wunderground v.1.15,2013-06-07 05:25:00,
2013-06-07 01:30:00,53.0,49.8,30.24,East,79,0.0,0.0,89,0.00,,,0.00,Wunderground v.1.15,2013-06-07 05:30:00,
2013-06-07 01:35:00,52.8,49.6,30.23,East,79,0.0,0.0,89,0.00,,,0.00,Wunderground v.1.15,2013-06-07 05:35:00,
2013-06-07 01:45:00,52.7,49.5,30.22,East,79,0.0,0.0,89,0.00,,,0.00,Wunderground v.1.15,2013-06-07 05:45:00,
2013-06-07 01:50:00,52.6,49.4,30.23,East,79,0.0,0.0,89,0.00,,,0.00,Wunderground v.1.15,2013-06-07 05:50:00,
2013-06-07 01:55:00,52.4,49.3,30.23,East,79,0.0,0.0,89,0.00,,,0.00,Wunderground v.1.15,2013-06-07 05:55:00,
2013-06-07 02:00:00,52.4,49.3,30.22,East,79,0.0,0.0,89,0.00,,,0.00,Wunderground v.1.15,2013-06-07 06:00:00,
2013-06-07 02:10:00,52.3,49.2,30.22,East,79,0.0,0.0,89,0.00,,,0.00,Wunderground v.1.15,2013-06-07 06:10:00,
2013-06-07 02:15:00,52.2,49.1,30.22,East,79,0.0,0.0,89,0.00,,,0.00,Wunderground v.1.15,2013-06-07 06:15:00,
2013-06-07 02:25:00,52.2,49.1,30.22,East,79,0.0,0.0,89,0.00,,,0.00,Wunderground v.1.15,2013-06-07 06:25:00,
2013-06-07 02:30:00,52.1,49.0,30.22,East,79,0.0,0.0,89,0.00,,,0.00,Wunderground v.1.15,2013-06-07 06:30:00,
2013-06-07 02:35:00,52.1,48.7,30.22,East,79,0.0,0.0,88,0.00,,,0.00,Wunderground v.1.15,2013-06-07 06:35:00,
2013-06-07 02:40:00,52.1,48.7,30.22,East,79,0.0,0.0,88,0.00,,,0.00,Wunderground v.1.15,2013-06-07 06:40:00,
2013-06-07 02:45:00,52.2,48.8,30.22,East,79,0.0,0.0,88,0.00,,,0.00,Wunderground v.1.15,2013-06-07 06:45:00,
2013-06-07 02:50:00,52.2,48.8,30.21,East,79,0.0,0.0,88,0.00,,,0.00,Wunderground v.1.15,2013-06-07 06:50:00,
2013-06-07 02:55:00,52.2,48.8,30.21,East,79,0.0,0.0,88,0.00,,,0.00,Wunderground v.1.15,2013-06-07 06:55:00,
2013-06-07 03:00:00,52.2,48.8,30.21,East,79,0.0,0.0,88,0.00,,,0.00,Wunderground v.1.15,2013-06-07 07:00:00,
2013-06-07 03:05:00,52.3,48.9,30.21,East,79,0.0,0.0,88,0.00,,,0.00,Wunderground v.1.15,2013-06-07 07:05:00,
2013-06-07 03:10:00,52.3,48.9,30.21,East,79,0.0,0.0,88,0.00,,,0.00,Wunderground v.1.15,2013-06-07 07:10:00,
2013-06-07 03:15:00,52.3,49.2,30.21,East,79,0.0,0.0,89,0.00,,,0.00,Wunderground v.1.15,2013-06-07 07:15:00,
2013-06-07 03:20:00,52.3,49.2,30.21,East,79,0.0,1.0,89,0.00,,,0.00,Wunderground v.1.15,2013-06-07 07:20:00,
2013-06-07 03:25:00,52.3,49.2,30.20,East,79,0.0,2.0,89,0.00,,,0.00,Wunderground v.1.15,2013-06-07 07:25:00,
2013-06-07 03:30:00,52.3,49.2,30.20,East,79,0.0,0.0,89,0.00,,,0.00,Wunderground v.1.15,2013-06-07 07:30:00,
2013-06-07 03:35:00,52.3,49.2,30.21,East,79,0.0,0.0,89,0.00,,,0.00,Wunderground v.1.15,2013-06-07 07:35:00,
2013-06-07 03:45:00,52.3,49.2,30.20,East,79,0.0,2.0,89,0.00,,,0.00,Wunderground v.1.15,2013-06-07 07:45:00,
2013-06-07 03:50:00,52.3,49.2,30.20,ENE,78,1.0,1.0,89,0.00,,,0.00,Wunderground v.1.15,2013-06-07 07:50:00,
2013-06-07 03:55:00,52.2,49.1,30.20,East,99,1.0,1.0,89,0.00,,,0.00,Wunderground v.1.15,2013-06-07 07:55:00,
2013-06-07 04:00:00,52.2,49.1,30.20,NE,40,1.0,1.0,89,0.00,,,0.00,Wunderground v.1.15,2013-06-07 08:00:00,
2013-06-07 04:05:00,52.1,49.0,30.20,NE,40,1.0,1.0,89,0.00,,,0.00,Wunderground v.1.15,2013-06-07 08:05:00,
2013-06-07 04:10:00,52.1,49.0,30.20,NE,40,0.0,1.0,89,0.00,,,0.00,Wunderground v.1.15,2013-06-07 08:10:00,
2013-06-07 04:15:00,52.1,49.0,30.19,NE,40,1.0,1.0,89,0.00,,,0.00,Wunderground v.1.15,2013-06-07 08:15:00,
2013-06-07 04:20:00,52.0,48.9,30.20,NE,40,0.0,0.0,89,0.00,,,0.00,Wunderground v.1.15,2013-06-07 08:20:00,
2013-06-07 04:25:00,52.0,48.9,30.20,NE,40,0.0,0.0,89,0.00,,,0.00,Wunderground v.1.15,2013-06-07 08:25:00,
2013-06-07 04:30:00,51.9,48.8,30.20,NE,40,0.0,0.0,89,0.00,,,0.00,Wunderground v.1.15,2013-06-07 08:30:00,
2013-06-07 04:35:00,51.8,48.7,30.20,NE,40,0.0,0.0,89,0.00,,,0.00,Wunderground v.1.15,2013-06-07 08:35:00,
2013-06-07 04:40:00,51.7,48.6,30.20,NE,40,0.0,1.0,89,0.00,,,0.00,Wunderground v.1.15,2013-06-07 08:40:00,
2013-06-07 04:50:00,51.6,48.2,30.19,NE,51,0.0,0.0,88,0.00,,,0.00,Wunderground v.1.15,2013-06-07 08:50:00,
2013-06-07 04:55:00,51.6,48.2,30.20,ENE,68,0.0,1.0,88,0.00,,,0.00,Wunderground v.1.15,2013-06-07 08:55:00,
2013-06-07 05:00:00,51.6,48.2,30.20,ENE,68,0.0,0.0,88,0.00,,,0.00,Wunderground v.1.15,2013-06-07 09:00:00,
2013-06-07 05:05:00,51.5,48.1,30.20,ENE,67,0.0,0.0,88,0.00,,,0.00,Wunderground v.1.15,2013-06-07 09:05:00,
2013-06-07 05:10:00,51.5,47.8,30.20,ENE,67,0.0,0.0,87,0.00,,,0.00,Wunderground v.1.15,2013-06-07 09:10:00,
2013-06-07 05:15:00,51.4,47.7,30.20,ENE,67,0.0,1.0,87,0.00,,,0.00,Wunderground v.1.15,2013-06-07 09:15:00,
2013-06-07 05:25:00,51.4,47.7,30.20,NE,38,0.0,1.0,87,0.00,,,0.00,Wunderground v.1.15,2013-06-07 09:25:00,
2013-06-07 05:30:00,51.4,47.7,30.20,NE,44,0.0,0.0,87,0.00,,,0.00,Wunderground v.1.15,2013-06-07 09:30:00,
2013-06-07 05:35:00,51.4,47.4,30.20,NNW,342,0.0,1.0,86,0.00,,,0.00,Wunderground v.1.15,2013-06-07 09:35:00,
2013-06-07 05:40:00,51.4,47.4,30.20,NNE,13,0.0,1.0,86,0.00,,,0.00,Wunderground v.1.15,2013-06-07 09:40:00,
2013-06-07 05:45:00,51.3,47.3,30.19,NNE,21,0.0,1.0,86,0.00,,,0.00,Wunderground v.1.15,2013-06-07 09:45:00,
2013-06-07 05:50:00,51.3,47.3,30.19,NNE,21,0.0,0.0,86,0.00,,,0.00,Wunderground v.1.15,2013-06-07 09:50:00,
2013-06-07 05:55:00,51.3,47.3,30.20,NE,47,1.0,1.0,86,0.00,,,0.00,Wunderground v.1.15,2013-06-07 09:55:00,
2013-06-07 06:00:00,51.3,47.3,30.20,NE,46,0.0,3.0,86,0.00,,,0.00,Wunderground v.1.15,2013-06-07 10:00:00,
2013-06-07 06:05:00,51.3,46.9,30.20,NE,46,0.0,3.0,85,0.00,,,0.00,Wunderground v.1.15,2013-06-07 10:05:00,
2013-06-07 06:10:00,51.3,46.9,30.20,NE,46,0.0,0.0,85,0.00,,,0.00,Wunderground v.1.15,2013-06-07 10:10:00,
2013-06-07 06:15:00,51.3,46.9,30.21,NE,47,0.0,0.0,85,0.00,,,0.00,Wunderground v.1.15,2013-06-07 10:15:00,
2013-06-07 06:20:00,51.3,46.9,30.21,ENE,67,1.0,1.0,85,0.00,,,0.00,Wunderground v.1.15,2013-06-07 10:20:00,
2013-06-07 06:25:00,51.2,46.8,30.21,ENE,67,1.0,1.0,85,0.00,,,0.00,Wunderground v.1.15,2013-06-07 10:25:00,
2013-06-07 06:30:00,51.3,46.9,30.21,ENE,71,1.0,1.0,85,0.00,,,0.00,Wunderground v.1.15,2013-06-07 10:30:00,
2013-06-07 06:35:00,51.3,46.9,30.21,ENE,71,0.0,1.0,85,0.00,,,0.00,Wunderground v.1.15,2013-06-07 10:35:00,
2013-06-07 06:40:00,51.4,47.0,30.21,ENE,71,0.0,0.0,85,0.00,,,0.00,Wunderground v.1.15,2013-06-07 10:40:00,
2013-06-07 06:45:00,51.3,46.9,30.21,NE,47,1.0,1.0,85,0.00,,,0.00,Wunderground v.1.15,2013-06-07 10:45:00,
2013-06-07 06:55:00,51.3,46.9,30.21,ENE,61,0.0,2.0,85,0.00,,,0.00,Wunderground v.1.15,2013-06-07 10:55:00,
2013-06-07 07:00:00,51.3,46.9,30.21,ENE,61,1.0,1.0,85,0.00,,,0.00,Wunderground v.1.15,2013-06-07 11:00:00,
2013-06-07 07:10:00,51.3,47.3,30.21,NE,35,1.0,4.0,86,0.00,,,0.00,Wunderground v.1.15,2013-06-07 11:10:00,
2013-06-07 07:15:00,51.3,47.3,30.21,NE,44,1.0,4.0,86,0.00,,,0.00,Wunderground v.1.15,2013-06-07 11:15:00,
2013-06-07 07:20:00,51.3,47.6,30.21,NE,37,2.0,2.0,87,0.00,,,0.00,Wunderground v.1.15,2013-06-07 11:20:00,
2013-06-07 07:25:00,51.5,47.5,30.21,North,5,2.0,2.0,86,0.00,,,0.00,Wunderground v.1.15,2013-06-07 11:25:00,
2013-06-07 07:30:00,51.6,47.5,30.21,North,5,1.0,1.0,86,0.00,,,0.00,Wunderground v.1.15,2013-06-07 11:30:00,
2013-06-07 07:35:00,51.6,47.5,30.21,NNE,23,1.0,3.0,86,0.00,,,0.00,Wunderground v.1.15,2013-06-07 11:35:00,
2013-06-07 07:40:00,51.6,47.5,30.21,ENE,65,1.0,1.0,86,0.00,,,0.00,Wunderground v.1.15,2013-06-07 11:40:00,
2013-06-07 07:45:00,51.7,48.0,30.21,NNE,17,1.0,1.0,87,0.00,,,0.00,Wunderground v.1.15,2013-06-07 11:45:00,
2013-06-07 07:50:00,51.7,47.6,30.21,ENE,65,1.0,1.0,86,0.00,,,0.00,Wunderground v.1.15,2013-06-07 11:50:00,
2013-06-07 07:55:00,51.8,47.7,30.21,ENE,57,1.0,1.0,86,0.00,,,0.00,Wunderground v.1.15,2013-06-07 11:55:00,
2013-06-07 08:00:00,51.9,47.8,30.21,NNE,30,1.0,1.0,86,0.00,,,0.00,Wunderground v.1.15,2013-06-07 12:00:00,
2013-06-07 08:05:00,51.9,48.2,30.21,NE,35,1.0,2.0,87,0.00,,,0.00,Wunderground v.1.15,2013-06-07 12:05:00,
2013-06-07 08:10:00,51.9,48.2,30.21,NNE,32,1.0,1.0,87,0.00,,,0.00,Wunderground v.1.15,2013-06-07 12:10:00,
2013-06-07 08:15:00,51.9,48.2,30.21,East,90,1.0,1.0,87,0.00,,,0.00,Wunderground v.1.15,2013-06-07 12:15:00,
2013-06-07 08:25:00,52.0,48.6,30.22,NE,38,2.0,3.0,88,0.00,,,0.00,Wunderground v.1.15,2013-06-07 12:25:00,
2013-06-07 08:30:00,52.1,48.7,30.22,ENE,60,2.0,3.0,88,0.00,,,0.00,Wunderground v.1.15,2013-06-07 12:30:00,
2013-06-07 08:35:00,52.2,48.8,30.22,North,5,1.0,3.0,88,0.00,,,0.00,Wunderground v.1.15,2013-06-07 12:35:00,
2013-06-07 08:40:00,52.4,48.9,30.22,North,5,1.0,1.0,88,0.00,,,0.00,Wunderground v.1.15,2013-06-07 12:40:00,
2013-06-07 08:45:00,52.5,49.0,30.22,North,5,0.0,1.0,88,0.00,,,0.00,Wunderground v.1.15,2013-06-07 12:45:00,
2013-06-07 08:50:00,52.6,49.1,30.23,North,5,0.0,2.0,88,0.00,,,0.00,Wunderground v.1.15,2013-06-07 12:50:00,
2013-06-07 08:55:00,52.6,49.1,30.23,NNE,33,1.0,2.0,88,0.00,,,0.00,Wunderground v.1.15,2013-06-07 12:55:00,
2013-06-07 09:00:00,52.7,49.5,30.23,NNE,29,1.0,1.0,89,0.00,,,0.00,Wunderground v.1.15,2013-06-07 13:00:00,
2013-06-07 09:05:00,52.8,49.6,30.23,NNE,29,0.0,1.0,89,0.00,,,0.00,Wunderground v.1.15,2013-06-07 13:05:00,
2013-06-07 09:10:00,52.9,49.7,30.22,NNE,15,1.0,2.0,89,0.00,,,0.00,Wunderground v.1.15,2013-06-07 13:10:00,
2013-06-07 09:15:00,53.2,50.0,30.22,NNE,19,1.0,2.0,89,0.00,,,0.00,Wunderground v.1.15,2013-06-07 13:15:00,
2013-06-07 09:20:00,53.2,50.3,30.22,North,5,1.0,3.0,90,0.00,,,0.00,Wunderground v.1.15,2013-06-07 13:20:00,
2013-06-07 09:25:00,53.4,50.5,30.22,North,360,2.0,3.0,90,0.00,,,0.00,Wunderground v.1.15,2013-06-07 13:25:00,
2013-06-07 09:30:00,53.3,50.4,30.22,NE,53,3.0,3.0,90,0.00,,,0.00,Wunderground v.1.15,2013-06-07 13:30:00,
2013-06-07 09:35:00,53.2,49.7,30.22,NE,55,2.0,3.0,88,0.00,,,0.00,Wunderground v.1.15,2013-06-07 13:35:00,
2013-06-07 09:40:00,53.3,50.1,30.22,North,5,2.0,2.0,89,0.00,,,0.00,Wunderground v.1.15,2013-06-07 13:40:00,
2013-06-07 09:45:00,53.5,50.3,30.22,NE,39,2.0,2.0,89,0.00,,,0.00,Wunderground v.1.15,2013-06-07 13:45:00,
2013-06-07 09:50:00,53.6,50.4,30.22,NE,50,1.0,5.0,89,0.00,,,0.00,Wunderground v.1.15,2013-06-07 13:50:00,
2013-06-07 09:55:00,53.5,50.3,30.22,NE,52,2.0,5.0,89,0.00,,,0.00,Wunderground v.1.15,2013-06-07 13:55:00,
2013-06-07 10:00:00,53.4,49.9,30.22,NE,41,2.0,3.0,88,0.00,,,0.00,Wunderground v.1.15,2013-06-07 14:00:00,
2013-06-07 10:05:00,53.4,50.2,30.22,NE,42,2.0,3.0,89,0.00,,,0.00,Wunderground v.1.15,2013-06-07 14:05:00,
2013-06-07 10:10:00,53.5,50.3,30.22,NNE,15,1.0,2.0,89,0.00,,,0.00,Wunderground v.1.15,2013-06-07 14:10:00,
2013-06-07 10:15:00,53.3,49.8,30.21,NNE,26,2.0,2.0,88,0.00,,,0.00,Wunderground v.1.15,2013-06-07 14:15:00,
2013-06-07 10:20:00,53.2,49.7,30.22,NE,51,3.0,3.0,88,0.00,,,0.00,Wunderground v.1.15,2013-06-07 14:20:00,
2013-06-07 10:25:00,53.2,49.7,30.22,NE,44,2.0,3.0,88,0.00,,,0.00,Wunderground v.1.15,2013-06-07 14:25:00,
2013-06-07 10:30:00,53.2,50.0,30.22,NNE,33,2.0,2.0,89,0.00,,,0.00,Wunderground v.1.15,2013-06-07 14:30:00,
2013-06-07 10:35:00,53.4,49.9,30.22,NNE,25,2.0,2.0,88,0.00,,,0.00,Wunderground v.1.15,2013-06-07 14:35:00,
2013-06-07 10:40:00,53.5,50.0,30.22,NE,56,2.0,4.0,88,0.00,,,0.00,Wunderground v.1.15,2013-06-07 14:40:00,
2013-06-07 10:45:00,53.4,49.6,30.22,North,11,3.0,4.0,87,0.00,,,0.00,Wunderground v.1.15,2013-06-07 14:45:00,
2013-06-07 10:50:00,53.4,49.9,30.22,NE,51,3.0,3.0,88,0.00,,,0.00,Wunderground v.1.15,2013-06-07 14:50:00,
2013-06-07 10:55:00,53.4,49.9,30.21,NE,51,3.0,3.0,88,0.00,,,0.00,Wunderground v.1.15,2013-06-07 14:55:00,
2013-06-07 11:00:00,53.6,50.1,30.21,East,85,3.0,3.0,88,0.00,,,0.00,Wunderground v.1.15,2013-06-07 15:00:00,
2013-06-07 11:10:00,53.8,50.0,30.22,NE,34,3.0,5.0,87,0.00,,,0.00,Wunderground v.1.15,2013-06-07 15:10:00,
2013-06-07 11:15:00,53.7,49.3,30.22,NNE,27,3.0,5.0,85,0.00,,,0.00,Wunderground v.1.15,2013-06-07 15:15:00,
2013-06-07 11:20:00,53.6,49.5,30.22,ENE,71,3.0,3.0,86,0.00,,,0.00,Wunderground v.1.15,2013-06-07 15:20:00,
2013-06-07 11:25:00,53.5,49.4,30.23,NE,34,2.0,3.0,86,0.00,,,0.00,Wunderground v.1.15,2013-06-07 15:25:00,
2013-06-07 11:30:00,53.6,49.5,30.22,ENE,57,2.0,2.0,86,0.00,,,0.00,Wunderground v.1.15,2013-06-07 15:30:00,
2013-06-07 11:35:00,53.6,48.9,30.22,NE,46,2.0,5.0,84,0.00,,,0.00,Wunderground v.1.15,2013-06-07 15:35:00,
2013-06-07 11:40:00,53.6,49.5,30.22,North,5,3.0,3.0,86,0.00,,,0.00,Wunderground v.1.15,2013-06-07 15:40:00,
2013-06-07 11:50:00,53.5,47.8,30.22,ENE,75,3.0,3.0,81,0.00,,,0.00,Wunderground v.1.15,2013-06-07 15:50:00,
2013-06-07 11:55:00,53.6,47.9,30.22,NE,43,3.0,3.0,81,0.00,,,0.00,Wunderground v.1.15,2013-06-07 15:55:00,
2013-06-07 12:00:00,53.7,47.7,30.22,ENE,70,3.0,4.0,80,0.00,,,0.00,Wunderground v.1.15,2013-06-07 16:00:00,
2013-06-07 12:05:00,53.3,46.3,30.22,North,5,4.0,4.0,77,0.00,,,0.00,Wunderground v.1.15,2013-06-07 16:05:00,
2013-06-07 12:10:00,53.2,46.9,30.22,NE,35,4.0,5.0,79,0.00,,,0.00,Wunderground v.1.15,2013-06-07 16:10:00,
2013-06-07 12:15:00,53.0,46.7,30.22,NNE,24,3.0,5.0,79,0.00,,,0.00,Wunderground v.1.15,2013-06-07 16:15:00,
2013-06-07 12:20:00,52.8,46.8,30.22,SE,140,2.0,3.0,80,0.00,,,0.00,Wunderground v.1.15,2013-06-07 16:20:00,
2013-06-07 12:25:00,52.5,47.2,30.23,NNE,30,2.0,3.0,82,0.00,,,0.00,Wunderground v.1.15,2013-06-07 16:25:00,
2013-06-07 12:30:00,52.3,47.0,30.23,East,94,2.0,2.0,82,0.00,,,0.00,Wunderground v.1.15,2013-06-07 16:30:00,
2013-06-07 12:35:00,52.2,45.9,30.22,ENE,59,2.0,2.0,79,0.00,,,0.00,Wunderground v.1.15,2013-06-07 16:35:00,
2013-06-07 12:40:00,52.2,45.9,30.22,North,11,3.0,3.0,79,0.00,,,0.00,Wunderground v.1.15,2013-06-07 16:40:00,
2013-06-07 12:45:00,52.2,46.9,30.21,ENE,76,2.0,3.0,82,0.00,,,0.00,Wunderground v.1.15,2013-06-07 16:45:00,
2013-06-07 12:50:00,52.3,46.6,30.21,NNE,21,2.0,2.0,81,0.00,,,0.00,Wunderground v.1.15,2013-06-07 16:50:00,
2013-06-07 12:55:00,52.3,47.0,30.21,NE,49,3.0,5.0,82,0.00,,,0.00,Wunderground v.1.15,2013-06-07 16:55:00,
2013-06-07 13:00:00,52.1,46.8,30.22,ENE,72,2.0,3.0,82,0.00,,,0.00,Wunderground v.1.15,2013-06-07 17:00:00,
2013-06-07 13:05:00,52.0,47.0,30.21,NE,56,2.0,3.0,83,0.00,,,0.00,Wunderground v.1.15,2013-06-07 17:05:00,
2013-06-07 13:10:00,51.6,46.6,30.21,SE,138,2.0,5.0,83,0.00,,,0.00,Wunderground v.1.15,2013-06-07 17:10:00,
2013-06-07 13:15:00,51.5,47.1,30.21,ENE,71,2.0,5.0,85,0.00,,,0.00,Wunderground v.1.15,2013-06-07 17:15:00,
2013-06-07 13:20:00,51.4,46.7,30.21,NNE,19,1.0,1.0,84,0.00,,,0.00,Wunderground v.1.15,2013-06-07 17:20:00,
2013-06-07 13:25:00,51.6,47.5,30.21,North,360,1.0,1.0,86,0.00,,,0.00,Wunderground v.1.15,2013-06-07 17:25:00,
2013-06-07 13:30:00,52.0,47.6,30.21,NNE,17,1.0,4.0,85,0.00,,,0.00,Wunderground v.1.15,2013-06-07 17:30:00,
2013-06-07 13:35:00,52.3,47.6,30.20,NNE,26,1.0,4.0,84,0.00,,,0.00,Wunderground v.1.15,2013-06-07 17:35:00,
2013-06-07 13:40:00,52.4,48.0,30.20,NNE,23,2.0,2.0,85,0.00,,,0.00,Wunderground v.1.15,2013-06-07 17:40:00,
2013-06-07 13:45:00,52.5,47.8,30.20,NNW,336,1.0,2.0,84,0.00,,,0.00,Wunderground v.1.15,2013-06-07 17:45:00,
2013-06-07 13:50:00,52.7,48.3,30.20,NNW,348,1.0,1.0,85,0.00,,,0.00,Wunderground v.1.15,2013-06-07 17:50:00,
2013-06-07 13:55:00,52.9,48.8,30.20,West,261,1.0,1.0,86,0.00,,,0.00,Wunderground v.1.15,2013-06-07 17:55:00,
2013-06-07 14:05:00,53.0,48.3,30.20,North,9,1.0,1.0,84,0.00,,,0.00,Wunderground v.1.15,2013-06-07 18:05:00,
2013-06-07 14:10:00,53.1,48.4,30.20,North,360,1.0,3.0,84,0.00,,,0.00,Wunderground v.1.15,2013-06-07 18:10:00,
2013-06-07 14:15:00,53.3,48.3,30.19,NNE,17,2.0,3.0,83,0.00,,,0.00,Wunderground v.1.15,2013-06-07 18:15:00,
2013-06-07 14:20:00,53.5,48.5,30.19,NNE,16,2.0,3.0,83,0.00,,,0.00,Wunderground v.1.15,2013-06-07 18:20:00,
2013-06-07 14:25:00,53.8,49.1,30.19,NNE,32,2.0,3.0,84,0.00,,,0.00,Wunderground v.1.15,2013-06-07 18:25:00,
2013-06-07 14:40:00,53.9,47.5,30.20,NE,40,2.0,5.0,79,0.00,,,0.00,Wunderground v.1.15,2013-06-07 18:40:00,
2013-06-07 14:50:00,53.4,47.4,30.20,ENE,71,3.0,5.0,80,0.00,,,0.00,Wunderground v.1.15,2013-06-07 18:50:00,
2013-06-07 14:55:00,53.2,46.9,30.20,East,94,3.0,5.0,79,0.00,,,0.00,Wunderground v.1.15,2013-06-07 18:55:00,
2013-06-07 15:10:00,52.7,47.7,30.20,NE,44,3.0,3.0,83,0.00,,,0.00,Wunderground v.1.15,2013-06-07 19:10:00,
2013-06-07 15:15:00,52.3,47.6,30.20,East,80,3.0,3.0,84,0.00,,,0.00,Wunderground v.1.15,2013-06-07 19:15:00,
2013-06-07 15:20:00,51.9,47.8,30.20,ENE,65,3.0,5.0,86,0.00,,,0.00,Wunderground v.1.15,2013-06-07 19:20:00,
2013-06-07 15:30:00,51.5,47.8,30.20,ENE,75,2.0,4.0,87,0.00,,,0.00,Wunderground v.1.15,2013-06-07 19:30:00,
2013-06-07 15:35:00,51.4,48.0,30.20,ENE,71,2.0,4.0,88,0.00,,,0.00,Wunderground v.1.15,2013-06-07 19:35:00,
2013-06-07 15:40:00,51.2,47.8,30.20,East,89,2.0,2.0,88,0.00,,,0.00,Wunderground v.1.15,2013-06-07 19:40:00,
2013-06-07 15:45:00,51.0,47.9,30.20,NE,56,3.0,3.0,89,0.00,,,0.00,Wunderground v.1.15,2013-06-07 19:45:00,
2013-06-07 15:50:00,51.0,47.9,30.20,NNE,24,2.0,3.0,89,0.00,,,0.00,Wunderground v.1.15,2013-06-07 19:50:00,
2013-06-07 15:55:00,50.9,48.1,30.20,NNE,25,1.0,3.0,90,0.00,,,0.00,Wunderground v.1.15,2013-06-07 19:55:00,
2013-06-07 16:00:00,50.8,48.0,30.19,North,5,2.0,5.0,90,0.00,,,0.01,Wunderground v.1.15,2013-06-07 20:00:00,
2013-06-07 16:05:00,50.7,47.9,30.19,NE,55,3.0,5.0,90,0.00,,,0.01,Wunderground v.1.15,2013-06-07 20:05:00,
2013-06-07 16:10:00,50.7,47.6,30.19,NNE,15,2.0,2.0,89,0.00,,,0.01,Wunderground v.1.15,2013-06-07 20:10:00,
2013-06-07 16:20:00,50.4,47.3,30.19,NNE,25,3.0,3.0,89,0.05,,,0.02,Wunderground v.1.15,2013-06-07 20:20:00,
2013-06-07 16:25:00,50.3,46.9,30.19,North,9,3.0,3.0,88,0.05,,,0.02,Wunderground v.1.15,2013-06-07 20:25:00,
2013-06-07 16:35:00,50.2,46.5,30.19,NE,40,3.0,3.0,87,0.00,,,0.03,Wunderground v.1.15,2013-06-07 20:35:00,
2013-06-07 16:40:00,50.2,46.5,30.18,ENE,67,2.0,2.0,87,0.00,,,0.03,Wunderground v.1.15,2013-06-07 20:40:00,
2013-06-07 16:45:00,50.3,46.6,30.18,NNE,32,2.0,6.0,87,0.00,,,0.03,Wunderground v.1.15,2013-06-07 20:45:00,
2013-06-07 16:50:00,50.3,46.3,30.18,NNW,346,2.0,3.0,86,0.00,,,0.03,Wunderground v.1.15,2013-06-07 20:50:00,
2013-06-07 16:55:00,50.3,46.3,30.18,ENE,58,2.0,3.0,86,0.00,,,0.03,Wunderground v.1.15,2013-06-07 20:55:00,
2013-06-07 17:00:00,50.3,46.3,30.17,NNE,32,2.0,2.0,86,0.00,,,0.03,Wunderground v.1.15,2013-06-07 21:00:00,
2013-06-07 17:05:00,50.2,46.2,30.17,NNE,17,3.0,3.0,86,0.00,,,0.03,Wunderground v.1.15,2013-06-07 21:05:00,
2013-06-07 17:20:00,50.2,45.9,30.17,NE,45,2.0,3.0,85,0.00,,,0.04,Wunderground v.1.15,2013-06-07 21:20:00,
2013-06-07 17:25:00,50.1,45.8,30.16,ENE,69,2.0,3.0,85,0.00,,,0.04,Wunderground v.1.15,2013-06-07 21:25:00,
2013-06-07 17:30:00,50.2,45.9,30.16,NE,41,2.0,2.0,85,0.00,,,0.04,Wunderground v.1.15,2013-06-07 21:30:00,
2013-06-07 17:35:00,50.2,45.9,30.16,NNE,13,2.0,2.0,85,0.00,,,0.04,Wunderground v.1.15,2013-06-07 21:35:00,
2013-06-07 17:40:00,50.1,45.8,30.16,NE,53,3.0,3.0,85,0.00,,,0.05,Wunderground v.1.15,2013-06-07 21:40:00,
2013-06-07 17:45:00,50.1,45.8,30.16,East,79,3.0,3.0,85,0.00,,,0.05,Wunderground v.1.15,2013-06-07 21:45:00,
2013-06-07 17:50:00,50.1,45.8,30.16,NE,51,3.0,3.0,85,0.00,,,0.05,Wunderground v.1.15,2013-06-07 21:50:00,
2013-06-07 18:05:00,50.1,45.5,30.15,NNE,25,3.0,3.0,84,0.04,,,0.06,Wunderground v.1.15,2013-06-07 22:05:00,
2013-06-07 18:10:00,50.1,45.5,30.15,ENE,62,3.0,3.0,84,0.04,,,0.07,Wunderground v.1.15,2013-06-07 22:10:00,
2013-06-07 18:15:00,50.1,45.5,30.15,NNE,15,3.0,3.0,84,0.04,,,0.07,Wunderground v.1.15,2013-06-07 22:15:00,
2013-06-07 18:20:00,50.1,45.5,30.15,NNE,17,3.0,3.0,84,0.04,,,0.07,Wunderground v.1.15,2013-06-07 22:20:00,
2013-06-07 18:25:00,50.1,45.5,30.15,NNE,22,3.0,3.0,84,0.04,,,0.08,Wunderground v.1.15,2013-06-07 22:25:00,
2013-06-07 18:30:00,50.1,45.5,30.16,NNE,16,3.0,3.0,84,0.04,,,0.08,Wunderground v.1.15,2013-06-07 22:30:00,
2013-06-07 18:40:00,50.1,45.5,30.15,NE,49,3.0,3.0,84,0.00,,,0.08,Wunderground v.1.15,2013-06-07 22:40:00,
2013-06-07 18:45:00,50.1,45.5,30.15,NE,48,2.0,3.0,84,0.00,,,0.09,Wunderground v.1.15,2013-06-07 22:45:00,
2013-06-07 18:50:00,50.1,45.5,30.15,NNE,21,3.0,4.0,84,0.00,,,0.09,Wunderground v.1.15,2013-06-07 22:50:00,
2013-06-07 18:55:00,50.1,45.5,30.15,NE,41,3.0,4.0,84,0.00,,,0.09,Wunderground v.1.15,2013-06-07 22:55:00,
2013-06-07 19:00:00,50.2,45.6,30.15,ENE,74,3.0,4.0,84,0.00,,,0.09,Wunderground v.1.15,2013-06-07 23:00:00,
2013-06-07 19:10:00,50.0,45.4,30.16,NE,47,5.0,5.0,84,0.00,,,0.10,Wunderground v.1.15,2013-06-07 23:10:00,
2013-06-07 19:15:00,50.0,45.4,30.15,North,360,5.0,6.0,84,0.00,,,0.10,Wunderground v.1.15,2013-06-07 23:15:00,
2013-06-07 19:20:00,50.0,45.4,30.15,NNE,26,4.0,4.0,84,0.00,,,0.10,Wunderground v.1.15,2013-06-07 23:20:00,
2013-06-07 19:25:00,49.9,45.3,30.15,NNE,12,4.0,4.0,84,0.00,,,0.10,Wunderground v.1.15,2013-06-07 23:25:00,
2013-06-07 19:30:00,49.9,45.3,30.15,ENE,65,4.0,4.0,84,0.00,,,0.10,Wunderground v.1.15,2013-06-07 23:30:00,
2013-06-07 19:35:00,49.8,45.2,30.15,NE,55,4.0,4.0,84,0.00,,,0.10,Wunderground v.1.15,2013-06-07 23:35:00,
2013-06-07 19:45:00,49.8,45.2,30.15,NNE,28,3.0,6.0,84,0.00,,,0.11,Wunderground v.1.15,2013-06-07 23:45:00,
2013-06-07 19:50:00,49.7,45.1,30.15,NE,53,4.0,4.0,84,0.00,,,0.11,Wunderground v.1.15,2013-06-07 23:50:00,
2013-06-07 19:55:00,49.7,45.1,30.15,ENE,62,4.0,4.0,84,0.04,,,0.12,Wunderground v.1.15,2013-06-07 23:55:00,
2013-06-07 20:05:00,49.6,45.0,30.14,NE,55,4.0,4.0,84,0.06,,,0.13,Wunderground v.1.15,2013-06-08 00:05:00,
2013-06-07 20:20:00,49.5,44.9,30.14,NE,43,4.0,6.0,84,0.05,,,0.14,Wunderground v.1.15,2013-06-08 00:20:00,
2013-06-07 20:25:00,49.4,44.8,30.14,NE,39,4.0,6.0,84,0.07,,,0.15,Wunderground v.1.15,2013-06-08 00:25:00,
2013-06-07 20:30:00,49.4,44.8,30.14,NE,46,4.0,4.0,84,0.08,,,0.16,Wunderground v.1.15,2013-06-08 00:30:00,
2013-06-07 20:35:00,49.4,44.8,30.14,NNE,25,3.0,4.0,84,0.08,,,0.16,Wunderground v.1.15,2013-06-08 00:35:00,
2013-06-07 20:40:00,49.4,44.8,30.14,ENE,67,2.0,2.0,84,0.08,,,0.17,Wunderground v.1.15,2013-06-08 00:40:00,
2013-06-07 20:45:00,49.4,44.8,30.13,ENE,70,2.0,4.0,84,0.09,,,0.18,Wunderground v.1.15,2013-06-08 00:45:00,
2013-06-07 21:00:00,49.3,44.7,30.13,North,9,4.0,4.0,84,0.10,,,0.21,Wunderground v.1.15,2013-06-08 01:00:00,
2013-06-07 21:20:00,49.2,44.6,30.13,NNE,15,5.0,6.0,84,0.10,,,0.24,Wunderground v.1.15,2013-06-08 01:20:00,
2013-06-07 21:25:00,49.2,44.6,30.13,NE,42,4.0,6.0,84,0.10,,,0.25,Wunderground v.1.15,2013-06-08 01:25:00,
2013-06-07 21:30:00,49.2,44.6,30.13,NNE,24,4.0,4.0,84,0.10,,,0.25,Wunderground v.1.15,2013-06-08 01:30:00,
2013-06-07 21:40:00,49.1,44.5,30.13,NNE,19,4.0,4.0,84,0.10,,,0.27,Wunderground v.1.15,2013-06-08 01:40:00,
2013-06-07 21:50:00,49.0,44.4,30.12,North,360,4.0,6.0,84,0.11,,,0.29,Wunderground v.1.15,2013-06-08 01:50:00,
2013-06-07 21:55:00,48.9,44.3,30.12,NE,34,5.0,6.0,84,0.10,,,0.30,Wunderground v.1.15,2013-06-08 01:55:00,
2013-06-07 22:00:00,48.9,44.3,30.12,NNE,13,5.0,7.0,84,0.11,,,0.31,Wunderground v.1.15,2013-06-08 02:00:00,
2013-06-07 22:05:00,48.9,44.3,30.12,NE,49,4.0,7.0,84,0.11,,,0.31,Wunderground v.1.15,2013-06-08 02:05:00,
2013-06-07 22:10:00,48.9,44.3,30.12,NE,53,3.0,3.0,84,0.10,,,0.32,Wunderground v.1.15,2013-06-08 02:10:00,
2013-06-07 22:20:00,48.9,44.3,30.11,ENE,57,4.0,4.0,84,0.10,,,0.34,Wunderground v.1.15,2013-06-08 02:20:00,
2013-06-07 22:25:00,48.9,44.3,30.11,NNE,33,5.0,7.0,84,0.11,,,0.35,Wunderground v.1.15,2013-06-08 02:25:00,
2013-06-07 22:35:00,49.0,44.4,30.10,NE,38,4.0,5.0,84,0.11,,,0.37,Wunderground v.1.15,2013-06-08 02:35:00,
2013-06-07 22:45:00,49.0,44.4,30.09,ENE,62,5.0,5.0,84,0.10,,,0.38,Wunderground v.1.15,2013-06-08 02:45:00,
2013-06-07 22:50:00,49.0,44.4,30.09,NE,40,4.0,4.0,84,0.11,,,0.39,Wunderground v.1.15,2013-06-08 02:50:00,
2013-06-07 22:55:00,49.0,44.4,30.08,NE,49,4.0,10.0,84,0.10,,,0.40,Wunderground v.1.15,2013-06-08 02:55:00,
2013-06-07 23:00:00,49.0,44.4,30.08,NNE,27,5.0,5.0,84,0.11,,,0.41,Wunderground v.1.15,2013-06-08 03:00:00,
2013-06-07 23:10:00,49.0,44.4,30.08,NNE,24,3.0,4.0,84,0.11,,,0.43,Wunderground v.1.15,2013-06-08 03:10:00,
2013-06-07 23:20:00,49.0,44.4,30.06,NNE,30,3.0,6.0,84,0.10,,,0.44,Wunderground v.1.15,2013-06-08 03:20:00,
2013-06-07 23:25:00,49.0,44.4,30.07,NE,52,4.0,6.0,84,0.11,,,0.45,Wunderground v.1.15,2013-06-08 03:25:00,
2013-06-07 23:30:00,49.0,44.4,30.06,NNE,24,4.0,5.0,84,0.09,,,0.46,Wunderground v.1.15,2013-06-08 03:30:00,
2013-06-07 23:35:00,49.0,44.4,30.07,NNE,13,4.0,5.0,84,0.10,,,0.47,Wunderground v.1.15,2013-06-08 03:35:00,
2013-06-07 23:45:00,49.0,44.4,30.07,ENE,74,4.0,9.0,84,0.09,,,0.48,Wunderground v.1.15,2013-06-08 03:45:00,
2013-06-07 23:50:00,49.0,44.4,30.07,North,5,4.0,4.0,84,0.10,,,0.49,Wunderground v.1.15,2013-06-08 03:50:00,
2013-06-07 23:55:00,49.0,44.4,30.07,NE,55,3.0,4.0,84,0.09,,,0.50,Wunderground v.1.15,2013-06-08 03:55:00,